Time;durP1;ratioP1;P1;durP2;ratioP2;P2;SDS_P1;SDS_P2;PMS_P1;PMS_P2;Temp;Humidity;BMP_temperature;BMP_pressure;BME280_temperature;BME280_humidity;BME280_pressure;Samples;Min_cycle;Max_cycle;Signal;HPM_P1;HPM_P2
2022/01/11 00:01:02;;;;;;;;;104.80;92.80;18.30;99.90;;;;;;5057257;28;8907;-71
2022/01/11 00:03:28;;;;;;;;;105.00;96.40;18.40;99.90;;;;;;5056152;28;8790;-71
2022/01/11 00:06:02;;;;;;;;;85.60;78.80;18.60;99.90;;;;;;5057136;28;8745;-71
2022/01/11 00:08:31;;;;;;;;;109.20;102.40;18.50;99.90;;;;;;5056388;28;8791;-71
2022/01/11 00:11:04;;;;;;;;;109.00;98.00;18.30;99.90;;;;;;5057010;28;9418;-71
2022/01/11 00:13:34;;;;;;;;;123.20;112.40;18.40;99.90;;;;;;5056643;28;8750;-70
2022/01/11 00:16:01;;;;;;;;;141.50;135.25;18.40;99.90;;;;;;5057413;28;8861;-71
2022/01/11 00:18:28;;;;;;;;;181.50;161.00;18.40;99.90;;;;;;5054650;28;10043;-71
2022/01/11 00:20:55;;;;;;;;;175.50;161.75;18.50;99.90;;;;;;5056809;28;8819;-71
2022/01/11 00:25:50;;;;;;;;;184.00;162.25;18.30;99.90;;;;;;5055401;28;8746;-71
2022/01/11 00:28:17;;;;;;;;;167.00;141.25;18.30;99.90;;;;;;5056779;28;8718;-67
2022/01/11 00:30:46;;;;;;;;;156.20;140.60;18.40;99.90;;;;;;5055350;28;8726;-71
2022/01/11 00:33:17;;;;;;;;;139.60;123.20;18.50;99.90;;;;;;5055409;28;8751;-71
2022/01/11 00:35:48;;;;;;;;;126.80;113.60;18.50;99.90;;;;;;5039199;28;8750;-71
2022/01/11 00:38:19;;;;;;;;;93.20;86.00;18.70;99.90;;;;;;5055365;28;8753;-71
2022/01/11 00:40:50;;;;;;;;;104.40;91.00;18.70;99.90;;;;;;5055036;28;8784;-71
2022/01/11 00:43:18;;;;;;;;;108.00;95.00;18.80;99.90;;;;;;5057132;28;8746;-69
2022/01/11 00:45:45;;;;;;;;;110.80;94.80;18.80;99.90;;;;;;5056563;28;8734;-70
2022/01/11 00:48:12;;;;;;;;;109.60;93.80;18.90;99.90;;;;;;5056217;28;8726;-71
2022/01/11 00:50:39;;;;;;;;;118.00;106.60;19.00;99.90;;;;;;5056016;28;8780;-70
2022/01/11 00:53:08;;;;;;;;;129.80;109.00;19.00;99.90;;;;;;5055994;28;8787;-70
2022/01/11 00:55:35;;;;;;;;;118.60;102.80;19.00;99.90;;;;;;5055948;28;12317;-71
2022/01/11 00:58:05;;;;;;;;;110.40;97.20;19.00;99.90;;;;;;5056705;28;8718;-70
2022/01/11 01:00:36;;;;;;;;;124.40;108.60;19.10;99.90;;;;;;5056100;28;8807;-70
2022/01/11 01:03:06;;;;;;;;;107.40;94.60;19.10;99.90;;;;;;5055968;28;9386;-71
2022/01/11 01:05:33;;;;;;;;;103.20;88.20;19.10;99.90;;;;;;5035891;28;8740;-71
2022/01/11 01:08:01;;;;;;;;;92.80;91.60;19.10;99.90;;;;;;5018868;28;8764;-71
2022/01/11 01:10:35;;;;;;;;;106.80;90.80;19.20;99.90;;;;;;5035935;28;9024;-70
2022/01/11 01:13:07;;;;;;;;;100.20;89.00;19.20;99.90;;;;;;5037101;28;8732;-70
2022/01/11 01:15:37;;;;;;;;;90.00;86.20;19.30;99.90;;;;;;5036579;28;8847;-70
2022/01/11 01:18:05;;;;;;;;;80.60;74.80;19.40;99.90;;;;;;5039976;28;8732;-71
2022/01/11 01:20:34;;;;;;;;;80.80;71.40;19.50;99.90;;;;;;5039482;28;8822;-71
2022/01/11 01:23:01;;;;;;;;;91.40;77.00;19.60;99.90;;;;;;5040250;28;10630;-71
2022/01/11 01:25:28;;;;;;;;;82.80;69.20;19.60;99.90;;;;;;5038324;28;8891;-70
2022/01/11 01:27:55;;;;;;;;;77.00;66.40;19.70;99.90;;;;;;5022661;28;8784;-70
2022/01/11 01:30:22;;;;;;;;;79.60;70.60;19.60;99.90;;;;;;5039223;28;8808;-71
2022/01/11 01:32:50;;;;;;;;;80.60;71.20;19.70;99.90;;;;;;5040014;28;8908;-70
2022/01/11 01:35:18;;;;;;;;;82.60;72.20;19.80;99.90;;;;;;5057909;28;8800;-70
2022/01/11 01:37:45;;;;;;;;;79.80;73.40;19.80;99.90;;;;;;5058596;28;8813;-70
2022/01/11 01:40:13;;;;;;;;;80.20;72.20;19.80;99.90;;;;;;5060812;28;8818;-70
2022/01/11 01:42:40;;;;;;;;;83.20;74.40;19.90;99.90;;;;;;5058173;28;8785;-70
2022/01/11 01:45:07;;;;;;;;;79.60;70.20;19.90;99.90;;;;;;5059487;28;8757;-71
2022/01/11 01:47:33;;;;;;;;;81.00;72.60;20.00;99.90;;;;;;5074806;28;8761;-71
2022/01/11 01:50:00;;;;;;;;;84.80;78.20;20.10;99.90;;;;;;5075061;28;8786;-71
2022/01/11 01:52:27;;;;;;;;;85.60;76.40;20.20;99.90;;;;;;5058977;28;8883;-70
2022/01/11 01:54:54;;;;;;;;;81.00;69.00;20.10;99.90;;;;;;5058639;28;8758;-70
2022/01/11 01:57:20;;;;;;;;;72.20;55.20;20.20;99.90;;;;;;5058968;28;9458;-69
2022/01/11 01:59:47;;;;;;;;;73.20;55.00;20.30;99.90;;;;;;5058098;28;8773;-72
2022/01/11 02:02:14;;;;;;;;;77.00;60.20;20.50;99.90;;;;;;5058985;28;8782;-71
2022/01/11 02:04:41;;;;;;;;;71.00;55.60;20.60;99.90;;;;;;5058949;28;8788;-70
2022/01/11 02:07:08;;;;;;;;;66.00;52.20;20.70;99.90;;;;;;5059744;28;8738;-71
2022/01/11 02:09:36;;;;;;;;;65.20;49.80;20.80;99.90;;;;;;5057462;28;8734;-70
2022/01/11 02:12:02;;;;;;;;;58.60;46.00;20.90;99.90;;;;;;5059370;28;8758;-71
2022/01/11 02:14:29;;;;;;;;;58.80;46.40;20.90;99.90;;;;;;5074158;28;8801;-71
2022/01/11 02:16:57;;;;;;;;;60.00;48.25;20.90;99.90;;;;;;5058934;28;8782;-70
2022/01/11 02:19:23;;;;;;;;;60.00;45.40;21.00;99.90;;;;;;5059311;28;8843;-70
2022/01/11 02:21:50;;;;;;;;;61.40;48.00;21.10;99.90;;;;;;5058196;28;8742;-71
2022/01/11 02:24:18;;;;;;;;;59.80;47.00;21.30;99.90;;;;;;5056871;28;8742;-69
2022/01/11 02:26:45;;;;;;;;;62.40;47.60;21.30;99.90;;;;;;5058451;28;8792;-71
2022/01/11 02:29:12;;;;;;;;;60.00;45.25;21.40;99.90;;;;;;5058595;28;8769;-70
2022/01/11 02:31:39;;;;;;;;;59.50;46.00;21.50;99.90;;;;;;5058556;28;8917;-70
2022/01/11 02:34:06;;;;;;;;;61.40;46.80;21.40;99.90;;;;;;5059183;28;8746;-70
2022/01/11 02:36:36;;;;;;;;;57.50;44.75;21.50;99.90;;;;;;5058657;28;8730;-70
2022/01/11 02:39:02;;;;;;;;;55.00;41.00;21.80;99.90;;;;;;5057461;28;8722;-71
2022/01/11 02:41:30;;;;;;;;;58.00;45.25;21.80;99.90;;;;;;5057481;28;8762;-71
2022/01/11 02:43:57;;;;;;;;;49.00;40.25;22.10;99.90;;;;;;5057380;28;8854;-69
2022/01/11 02:46:24;;;;;;;;;56.50;43.75;22.20;99.90;;;;;;5058567;28;8738;-70
2022/01/11 02:48:52;;;;;;;;;57.50;47.25;22.30;99.90;;;;;;5058587;28;8758;-70
2022/01/11 02:51:18;;;;;;;;;54.50;44.25;22.30;99.90;;;;;;5058115;28;9252;-70
2022/01/11 02:53:49;;;;;;;;;29.00;23.00;22.30;99.90;;;;;;5058457;28;8753;-70
2022/01/11 02:56:17;;;;;;;;;50.00;39.75;22.30;99.90;;;;;;5058005;28;8785;-69
2022/01/11 02:58:44;;;;;;;;;53.75;40.75;22.30;99.90;;;;;;5058120;28;8742;-70
2022/01/11 03:01:11;;;;;;;;;51.50;39.75;22.50;99.90;;;;;;5057180;28;8896;-70
2022/01/11 03:03:38;;;;;;;;;52.75;40.00;22.60;99.90;;;;;;5057374;28;8774;-70
2022/01/11 03:06:05;;;;;;;;;47.50;36.75;22.80;99.90;;;;;;5056996;28;8749;-71
2022/01/11 03:08:36;;;;;;;;;45.25;36.00;23.00;99.90;;;;;;5057838;28;8746;-71
2022/01/11 03:11:05;;;;;;;;;32.50;27.25;23.20;99.90;;;;;;5057705;28;8758;-72
2022/01/11 03:13:32;;;;;;;;;43.00;34.25;23.20;99.90;;;;;;5057488;28;8726;-70
2022/01/11 03:15:58;;;;;;;;;52.00;43.00;23.10;99.90;;;;;;5058620;28;8839;-71
2022/01/11 03:18:25;;;;;;;;;54.25;45.50;23.20;99.90;;;;;;5057196;28;8754;-69
2022/01/11 03:20:53;;;;;;;;;51.00;40.00;23.20;99.90;;;;;;5047062;28;8751;-71
2022/01/11 03:23:20;;;;;;;;;53.75;42.00;23.30;99.90;;;;;;5056523;28;8902;-69
2022/01/11 03:25:47;;;;;;;;;63.50;45.25;23.30;99.90;;;;;;5056638;28;8721;-70
2022/01/11 03:28:14;;;;;;;;;40.50;34.00;23.40;99.90;;;;;;5057770;28;8754;-71
2022/01/11 03:30:41;;;;;;;;;59.75;47.25;23.60;99.90;;;;;;5057449;28;8777;-71
2022/01/11 03:33:08;;;;;;;;;62.00;47.25;23.70;99.90;;;;;;5056900;28;8774;-71
2022/01/11 03:35:36;;;;;;;;;62.00;48.25;23.70;99.90;;;;;;5057566;28;8765;-70
2022/01/11 03:38:04;;;;;;;;;57.75;45.75;23.80;99.90;;;;;;5057214;28;8765;-70
2022/01/11 03:40:30;;;;;;;;;54.75;46.50;23.80;99.90;;;;;;5055971;28;8762;-70
2022/01/11 03:42:57;;;;;;;;;56.00;44.50;23.90;99.90;;;;;;5058622;28;8758;-70
2022/01/11 03:45:25;;;;;;;;;57.25;45.00;24.00;99.90;;;;;;5057093;28;8776;-70
2022/01/11 03:47:54;;;;;;;;;45.75;38.75;24.20;99.90;;;;;;5057678;28;8772;-71
2022/01/11 03:50:21;;;;;;;;;52.25;41.50;24.40;99.90;;;;;;5055199;28;8778;-69
2022/01/11 03:52:57;;;;;;;;;54.25;44.25;24.40;99.90;;;;;;5057611;28;8853;-70
2022/01/11 03:55:42;;;;;;;;;55.50;44.25;24.60;99.90;;;;;;5040697;28;8789;-70
2022/01/11 03:58:12;;;;;;;;;55.50;45.25;24.70;99.90;;;;;;5056573;28;8774;-70
2022/01/11 04:00:40;;;;;;;;;53.00;41.75;24.80;99.50;;;;;;5055678;28;8878;-71
2022/01/11 04:03:07;;;;;;;;;53.25;42.25;24.70;99.40;;;;;;5056556;28;8781;-70
2022/01/11 04:05:34;;;;;;;;;51.75;41.25;24.80;99.70;;;;;;5056740;28;8773;-70
2022/01/11 04:08:01;;;;;;;;;53.50;42.50;24.90;99.80;;;;;;5057010;28;8880;-70
2022/01/11 04:10:27;;;;;;;;;46.25;35.25;25.10;98.50;;;;;;5056809;28;8742;-71
2022/01/11 04:12:54;;;;;;;;;45.75;38.25;25.20;98.60;;;;;;5057726;28;8846;-70
2022/01/11 04:15:21;;;;;;;;;47.50;39.00;25.30;98.00;;;;;;5055687;28;8769;-69
2022/01/11 04:17:48;;;;;;;;;50.00;40.00;25.30;98.20;;;;;;5055591;28;8847;-70
2022/01/11 04:20:16;;;;;;;;;54.50;43.00;25.40;97.50;;;;;;5056594;28;8781;-70
2022/01/11 04:22:43;;;;;;;;;51.25;42.50;25.40;97.90;;;;;;5056198;28;8742;-71
2022/01/11 04:25:10;;;;;;;;;49.75;40.25;25.50;98.00;;;;;;5057034;28;8746;-70
2022/01/11 04:27:37;;;;;;;;;35.50;29.75;25.50;96.80;;;;;;5055120;28;8761;-70
2022/01/11 04:30:04;;;;;;;;;42.50;36.25;25.60;96.20;;;;;;5056814;28;8774;-70
2022/01/11 04:32:31;;;;;;;;;47.50;38.75;25.70;95.50;;;;;;5056203;28;8782;-70
2022/01/11 04:34:58;;;;;;;;;46.25;39.50;25.90;94.80;;;;;;5056622;28;8784;-70
2022/01/11 04:37:24;;;;;;;;;47.50;39.25;26.00;95.10;;;;;;5056401;28;8790;-63
2022/01/11 04:39:51;;;;;;;;;44.50;36.00;26.00;95.50;;;;;;5057246;28;8734;-70
2022/01/11 04:42:18;;;;;;;;;39.25;31.00;26.10;95.10;;;;;;5056201;28;8876;-68
2022/01/11 04:44:45;;;;;;;;;40.00;33.25;26.10;94.60;;;;;;5056536;28;8770;-70
2022/01/11 04:47:11;;;;;;;;;42.75;34.00;26.20;94.10;;;;;;5055001;28;8770;-71
2022/01/11 04:49:42;;;;;;;;;41.25;34.25;26.20;93.90;;;;;;5056697;28;8792;-69
2022/01/11 04:52:09;;;;;;;;;39.25;30.75;26.30;94.10;;;;;;5061016;28;8819;-69
2022/01/11 04:54:36;;;;;;;;;48.00;38.50;26.30;93.90;;;;;;5058977;28;8908;-69
2022/01/11 04:57:04;;;;;;;;;46.75;38.75;26.50;93.30;;;;;;5042690;28;8762;-69
2022/01/11 04:59:30;;;;;;;;;40.25;34.25;26.40;93.80;;;;;;5042354;28;8783;-69
2022/01/11 05:01:57;;;;;;;;;37.25;33.75;26.50;93.70;;;;;;5059068;28;8797;-70
2022/01/11 05:04:24;;;;;;;;;42.00;33.00;26.80;93.20;;;;;;5059358;28;8737;-69
2022/01/11 05:06:50;;;;;;;;;46.75;37.75;26.90;92.60;;;;;;5060439;28;8737;-69
2022/01/11 05:09:17;;;;;;;;;42.25;34.00;27.10;92.40;;;;;;5059040;28;8769;-68
2022/01/11 05:11:44;;;;;;;;;37.00;33.75;27.10;92.30;;;;;;5060334;28;8730;-69
2022/01/11 05:14:11;;;;;;;;;41.25;32.50;27.20;91.50;;;;;;5059845;28;8758;-70
2022/01/11 05:16:37;;;;;;;;;37.50;34.00;27.10;91.80;;;;;;5059587;28;8868;-69
2022/01/11 05:19:06;;;;;;;;;30.67;30.00;27.20;91.70;;;;;;5060367;28;8864;-69
2022/01/11 05:21:33;;;;;;;;;36.00;31.00;27.40;91.00;;;;;;5058292;28;8749;-69
2022/01/11 05:24:00;;;;;;;;;44.00;33.25;27.60;91.10;;;;;;5059913;28;8750;-69
2022/01/11 05:26:27;;;;;;;;;31.75;29.25;27.60;91.10;;;;;;5059930;28;8815;-70
2022/01/11 05:28:53;;;;;;;;;31.50;28.25;27.80;88.80;;;;;;5059121;28;8738;-70
2022/01/11 05:31:20;;;;;;;;;34.25;30.00;27.70;88.70;;;;;;5058631;28;8895;-68
2022/01/11 05:33:47;;;;;;;;;32.50;29.75;27.70;89.20;;;;;;5059508;28;8733;-70
2022/01/11 05:36:14;;;;;;;;;36.00;31.00;27.70;90.20;;;;;;5059343;28;8734;-70
2022/01/11 05:38:40;;;;;;;;;38.75;33.00;27.80;89.00;;;;;;5059889;28;8761;-69
2022/01/11 05:41:07;;;;;;;;;35.50;31.75;27.80;88.80;;;;;;5058457;28;8753;-69
2022/01/11 05:43:35;;;;;;;;;35.25;31.50;27.80;89.80;;;;;;5050257;28;8742;-69
2022/01/11 05:46:03;;;;;;;;;36.50;31.25;27.90;90.00;;;;;;5075468;28;9503;-69
2022/01/11 05:48:32;;;;;;;;;37.00;28.00;27.90;88.90;;;;;;5041833;28;8812;-68
2022/01/11 05:51:00;;;;;;;;;37.00;31.00;27.80;90.50;;;;;;5057860;28;8789;-69
2022/01/11 05:53:26;;;;;;;;;33.50;30.00;27.90;90.30;;;;;;5041615;28;8758;-68
2022/01/11 05:55:53;;;;;;;;;34.00;31.25;28.00;90.40;;;;;;5058784;28;10552;-69
2022/01/11 05:58:21;;;;;;;;;38.50;31.75;28.20;90.30;;;;;;5060137;28;8850;-68
2022/01/11 06:00:48;;;;;;;;;34.50;31.25;28.30;88.10;;;;;;5059814;28;8764;-68
2022/01/11 06:03:14;;;;;;;;;37.75;30.25;28.30;87.70;;;;;;5058676;28;8781;-69
2022/01/11 06:05:41;;;;;;;;;32.75;29.50;28.30;88.20;;;;;;5059461;28;8765;-70
2022/01/11 06:08:08;;;;;;;;;33.75;30.75;28.40;86.10;;;;;;5059198;28;8784;-70
2022/01/11 06:10:35;;;;;;;;;30.00;25.75;28.50;87.00;;;;;;5057499;28;8773;-69
2022/01/11 06:13:02;;;;;;;;;38.00;32.00;28.40;87.80;;;;;;5059517;28;8758;-70
2022/01/11 06:15:30;;;;;;;;;35.67;31.00;28.60;86.70;;;;;;5057873;28;8942;-69
2022/01/11 06:17:57;;;;;;;;;30.75;30.25;28.60;86.90;;;;;;5059440;28;8825;-69
2022/01/11 06:20:24;;;;;;;;;32.75;29.50;28.50;85.10;;;;;;5058653;28;8797;-69
2022/01/11 06:22:50;;;;;;;;;35.50;29.75;28.50;87.20;;;;;;5059218;28;8857;-69
2022/01/11 06:25:17;;;;;;;;;30.00;24.75;28.60;87.10;;;;;;5058463;28;8860;-69
2022/01/11 06:27:44;;;;;;;;;34.75;30.50;28.80;86.00;;;;;;5058949;28;8867;-69
2022/01/11 06:30:11;;;;;;;;;31.75;29.50;28.90;86.00;;;;;;5058661;28;8768;-70
2022/01/11 06:32:38;;;;;;;;;33.75;28.50;29.10;84.50;;;;;;5057152;28;8793;-69
2022/01/11 06:35:06;;;;;;;;;28.00;27.25;29.00;84.70;;;;;;5058083;28;8788;-71
2022/01/11 06:37:33;;;;;;;;;31.75;29.25;29.10;83.20;;;;;;5058496;28;9463;-69
2022/01/11 06:40:01;;;;;;;;;22.00;18.50;29.20;81.80;;;;;;5057717;28;8762;-71
2022/01/11 06:42:27;;;;;;;;;26.00;23.50;29.20;81.10;;;;;;5040460;28;10076;-69
2022/01/11 06:44:54;;;;;;;;;23.25;23.00;29.30;80.80;;;;;;5057539;28;8738;-70
2022/01/11 06:47:21;;;;;;;;;26.25;25.25;29.40;80.40;;;;;;5058116;28;8876;-69
2022/01/11 06:49:47;;;;;;;;;29.25;28.25;29.50;79.80;;;;;;5058513;28;8795;-69
2022/01/11 06:52:14;;;;;;;;;26.25;23.50;29.50;79.40;;;;;;5058954;28;8860;-69
2022/01/11 06:54:41;;;;;;;;;25.50;23.25;29.60;78.80;;;;;;5058029;28;8734;-70
2022/01/11 06:57:09;;;;;;;;;26.50;26.50;29.70;79.60;;;;;;5056741;28;8778;-70
2022/01/11 06:59:37;;;;;;;;;28.00;23.50;29.70;79.70;;;;;;5057544;28;8749;-69
2022/01/11 07:02:06;;;;;;;;;24.75;22.00;29.80;79.60;;;;;;5056184;28;8789;-70
2022/01/11 07:04:34;;;;;;;;;32.00;29.50;29.60;79.90;;;;;;5058006;28;8738;-69
2022/01/11 07:07:00;;;;;;;;;32.00;29.00;29.60;79.30;;;;;;5058693;28;9490;-69
2022/01/11 07:09:27;;;;;;;;;25.50;22.50;29.70;79.80;;;;;;5057879;28;8761;-70
2022/01/11 07:11:54;;;;;;;;;27.00;26.25;29.80;78.90;;;;;;5057785;28;8726;-70
2022/01/11 07:14:21;;;;;;;;;27.25;23.50;29.90;78.70;;;;;;5056357;28;8726;-68
2022/01/11 07:16:48;;;;;;;;;28.25;27.00;29.90;78.40;;;;;;5057699;28;8770;-69
2022/01/11 07:19:16;;;;;;;;;31.50;27.25;29.90;78.60;;;;;;5057821;28;8745;-70
2022/01/11 07:21:44;;;;;;;;;31.50;27.25;30.10;74.40;;;;;;5057632;28;8734;-69
2022/01/11 07:24:12;;;;;;;;;32.50;30.00;30.10;75.90;;;;;;5057322;28;8883;-69
2022/01/11 07:26:38;;;;;;;;;33.25;30.00;30.00;77.80;;;;;;5057892;28;8766;-70
2022/01/11 07:29:11;;;;;;;;;30.50;29.75;30.10;77.30;;;;;;5057517;28;8750;-72
2022/01/11 07:31:39;;;;;;;;;19.50;19.25;30.10;77.50;;;;;;5057413;28;8864;-71
2022/01/11 07:34:06;;;;;;;;;16.25;14.50;30.30;71.00;;;;;;5056972;28;8746;-70
2022/01/11 07:36:33;;;;;;;;;18.00;15.00;30.40;66.50;;;;;;5056957;28;8949;-71
2022/01/11 07:39:00;;;;;;;;;20.25;19.00;30.50;67.90;;;;;;5057464;28;8853;-70
2022/01/11 07:41:26;;;;;;;;;19.20;18.00;30.40;67.70;;;;;;5057205;28;8799;-70
2022/01/11 07:43:53;;;;;;;;;22.00;18.25;30.40;68.30;;;;;;5057324;28;8754;-70
2022/01/11 07:46:20;;;;;;;;;20.50;18.75;30.50;68.10;;;;;;5057443;28;8884;-69
2022/01/11 07:48:47;;;;;;;;;19.75;18.75;30.40;70.30;;;;;;5057216;28;8786;-70
2022/01/11 07:51:13;;;;;;;;;23.00;22.00;30.40;69.90;;;;;;5057114;28;8758;-70
2022/01/11 07:53:40;;;;;;;;;23.50;22.00;30.60;70.10;;;;;;5056874;28;8835;-71
2022/01/11 07:56:07;;;;;;;;;26.75;25.00;30.60;72.10;;;;;;5056946;28;8950;-71
2022/01/11 07:58:34;;;;;;;;;25.50;23.50;30.60;71.00;;;;;;5057081;28;8785;-71
2022/01/11 08:01:00;;;;;;;;;21.50;21.00;30.60;71.30;;;;;;5057743;28;8769;-70
2022/01/11 08:03:27;;;;;;;;;31.25;25.25;30.60;71.30;;;;;;5056239;28;8898;-69
2022/01/11 08:05:54;;;;;;;;;25.00;21.75;30.80;71.70;;;;;;5056918;28;8856;-70
2022/01/11 08:08:21;;;;;;;;;25.00;21.00;30.70;71.70;;;;;;5072098;28;8769;-70
2022/01/11 08:10:47;;;;;;;;;21.40;20.40;30.80;70.00;;;;;;5056635;28;8746;-72
2022/01/11 08:13:15;;;;;;;;;23.75;23.00;30.80;70.00;;;;;;5058046;28;8757;-70
2022/01/11 08:15:43;;;;;;;;;17.25;15.50;30.70;70.90;;;;;;5056907;28;8742;-70
2022/01/11 08:18:09;;;;;;;;;26.00;21.00;30.80;70.30;;;;;;5055199;28;8824;-70
2022/01/11 08:20:36;;;;;;;;;23.25;22.25;30.90;69.60;;;;;;5055408;28;8765;-70
2022/01/11 08:23:03;;;;;;;;;27.50;23.00;30.90;70.80;;;;;;5056918;28;9547;-70
2022/01/11 08:25:30;;;;;;;;;25.00;24.00;30.90;70.50;;;;;;5054950;28;8735;-70
2022/01/11 08:27:56;;;;;;;;;21.25;19.25;30.90;70.00;;;;;;5057011;28;8746;-71
2022/01/11 08:30:23;;;;;;;;;28.00;23.75;30.80;70.10;;;;;;5056163;28;8868;-69
2022/01/11 08:32:50;;;;;;;;;18.75;16.50;30.80;69.50;;;;;;5055475;28;8792;-70
2022/01/11 08:35:16;;;;;;;;;24.75;23.25;30.60;69.10;;;;;;5056301;28;8761;-70
2022/01/11 08:37:43;;;;;;;;;22.50;21.00;30.40;70.30;;;;;;5054904;28;8784;-69
2022/01/11 08:40:11;;;;;;;;;24.00;21.00;30.30;72.20;;;;;;5072225;28;8741;-69
2022/01/11 08:42:38;;;;;;;;;24.25;20.75;30.30;73.60;;;;;;5054789;28;8781;-70
2022/01/11 08:45:06;;;;;;;;;23.25;21.00;30.20;72.80;;;;;;5056350;28;8762;-70
2022/01/11 08:47:34;;;;;;;;;24.00;22.25;30.10;73.10;;;;;;5056384;28;8795;-70
2022/01/11 08:50:02;;;;;;;;;21.25;20.25;29.90;74.00;;;;;;5056370;28;8849;-70
2022/01/11 08:52:29;;;;;;;;;20.00;18.75;30.00;74.30;;;;;;5056057;28;8770;-69
2022/01/11 08:54:56;;;;;;;;;22.00;20.50;30.10;76.10;;;;;;5057086;28;8764;-69
2022/01/11 08:57:23;;;;;;;;;22.75;19.50;30.20;72.80;;;;;;5054539;28;8804;-69
2022/01/11 08:59:50;;;;;;;;;22.00;19.25;30.30;71.70;;;;;;5056045;28;8730;-69
2022/01/11 09:02:20;;;;;;;;;20.50;20.00;30.60;72.50;;;;;;5055569;28;8900;-69
2022/01/11 09:04:47;;;;;;;;;24.00;21.50;30.70;71.80;;;;;;5055819;28;8902;-69
2022/01/11 09:07:14;;;;;;;;;29.00;26.50;30.80;71.50;;;;;;5056980;28;8745;-70
2022/01/11 09:09:41;;;;;;;;;26.25;23.75;30.80;72.00;;;;;;5054673;28;8892;-69
2022/01/11 09:12:10;;;;;;;;;25.25;23.50;30.70;71.60;;;;;;5056166;28;8768;-71
2022/01/11 09:14:36;;;;;;;;;22.25;19.75;30.70;71.50;;;;;;5054604;28;8778;-69
2022/01/11 09:17:03;;;;;;;;;22.00;20.00;30.60;72.60;;;;;;5056097;28;8801;-70
2022/01/11 09:19:31;;;;;;;;;24.25;22.50;30.70;73.60;;;;;;5054513;28;8742;-70
2022/01/11 09:21:57;;;;;;;;;18.75;18.00;30.80;72.40;;;;;;5056602;28;8746;-70
2022/01/11 09:24:29;;;;;;;;;23.50;21.75;30.80;72.80;;;;;;5055794;28;8738;-69
2022/01/11 09:26:59;;;;;;;;;23.50;21.75;30.80;71.80;;;;;;5056070;28;8729;-70
2022/01/11 09:29:27;;;;;;;;;21.50;19.75;30.90;72.30;;;;;;5055836;28;8769;-69
2022/01/11 09:31:56;;;;;;;;;20.25;20.25;30.90;72.60;;;;;;5056224;28;8749;-69
2022/01/11 09:34:23;;;;;;;;;23.75;22.50;30.80;72.90;;;;;;5054645;28;8745;-69
2022/01/11 09:36:50;;;;;;;;;25.50;24.00;30.80;73.50;;;;;;5056809;28;10802;-69
2022/01/11 09:39:16;;;;;;;;;22.67;19.67;30.80;72.50;;;;;;5059880;28;8710;-70
2022/01/11 09:41:43;;;;;;;;;23.50;21.25;30.70;72.30;;;;;;5059580;28;9376;-70
2022/01/11 09:44:11;;;;;;;;;22.00;19.20;30.70;73.50;;;;;;5058335;28;8713;-70
2022/01/11 09:46:38;;;;;;;;;21.50;19.50;30.70;73.30;;;;;;5059326;28;9525;-69
2022/01/11 09:49:05;;;;;;;;;21.00;19.75;30.70;73.20;;;;;;5058897;28;8866;-69
2022/01/11 09:51:32;;;;;;;;;22.75;22.50;30.70;73.60;;;;;;5059188;28;8769;-69
2022/01/11 09:53:59;;;;;;;;;19.25;16.25;30.50;73.00;;;;;;5059139;28;9285;-69
2022/01/11 09:56:26;;;;;;;;;22.50;20.75;30.40;73.00;;;;;;5059180;28;9460;-69
2022/01/11 09:58:53;;;;;;;;;23.50;22.00;30.30;73.10;;;;;;5059487;28;9371;-69
2022/01/11 10:01:20;;;;;;;;;19.25;19.25;30.30;75.70;;;;;;5059789;28;8786;-64
2022/01/11 10:04:04;;;;;;;;;20.75;20.75;30.30;75.50;;;;;;5059190;28;9509;-69
2022/01/11 10:06:35;;;;;;;;;23.25;22.50;30.20;76.50;;;;;;5059116;28;8788;-69
2022/01/11 10:09:10;;;;;;;;;24.25;22.75;30.10;78.00;;;;;;5059230;28;8787;-69
2022/01/11 10:11:41;;;;;;;;;28.75;23.25;30.00;78.70;;;;;;5059451;28;8765;-69
2022/01/11 10:14:34;;;;;;;;;22.75;22.25;29.90;78.30;;;;;;5059074;28;8769;-69
2022/01/11 10:17:04;;;;;;;;;30.75;24.00;30.00;78.00;;;;;;5059493;28;8789;-70
2022/01/11 10:19:31;;;;;;;;;21.25;16.25;30.10;77.80;;;;;;5059004;28;8774;-70
2022/01/11 10:21:58;;;;;;;;;18.50;17.50;30.10;77.30;;;;;;5059514;28;8756;-70
2022/01/11 10:24:32;;;;;;;;;27.50;21.75;30.10;76.50;;;;;;5058714;28;8777;-69
2022/01/11 10:27:02;;;;;;;;;27.00;24.75;30.10;77.80;;;;;;5058909;28;8805;-70
2022/01/11 10:29:40;;;;;;;;;29.25;25.50;30.00;79.30;;;;;;5057115;28;8766;-70
2022/01/11 10:32:16;;;;;;;;;29.75;26.25;29.80;81.40;;;;;;5058806;28;8761;-70
2022/01/11 10:34:47;;;;;;;;;33.75;28.75;29.60;82.00;;;;;;5058627;28;9398;-70
2022/01/11 10:37:14;;;;;;;;;34.50;30.00;29.40;83.20;;;;;;5058079;28;8766;-70
2022/01/11 10:39:44;;;;;;;;;33.33;29.33;29.20;83.50;;;;;;5073831;28;8777;-70
2022/01/11 10:42:33;;;;;;;;;30.25;28.25;29.10;83.50;;;;;;5058656;28;8777;-70
2022/01/11 10:45:11;;;;;;;;;32.50;29.25;29.00;83.10;;;;;;5058633;28;8773;-70
2022/01/11 10:47:40;;;;;;;;;35.25;32.00;28.80;82.80;;;;;;5058425;28;8766;-70
2022/01/11 10:50:18;;;;;;;;;52.25;40.50;28.70;82.70;;;;;;5058450;28;8749;-70
2022/01/11 10:52:44;;;;;;;;;49.00;38.75;28.50;82.80;;;;;;5058764;28;8801;-70
2022/01/11 10:55:16;;;;;;;;;38.50;35.25;28.50;82.50;;;;;;5059050;28;8788;-70
2022/01/11 10:57:44;;;;;;;;;49.75;36.50;28.40;82.80;;;;;;5058535;28;8793;-70
2022/01/11 11:00:18;;;;;;;;;43.25;34.00;28.20;83.00;;;;;;5058209;28;9885;-70
2022/01/11 11:02:49;;;;;;;;;46.50;36.00;28.10;83.40;;;;;;5056693;28;8789;-70
2022/01/11 11:05:23;;;;;;;;;39.50;32.25;28.00;84.10;;;;;;5057968;28;8847;-69
2022/01/11 11:08:01;;;;;;;;;45.75;34.00;27.90;84.10;;;;;;5058528;28;8746;-70
2022/01/11 11:10:40;;;;;;;;;42.25;36.00;27.80;84.40;;;;;;5057997;28;8800;-69
2022/01/11 11:13:08;;;;;;;;;45.75;36.25;27.70;84.80;;;;;;5042705;28;8776;-70
2022/01/11 11:15:37;;;;;;;;;41.00;36.50;27.60;85.80;;;;;;5057976;28;9422;-70
2022/01/11 11:18:05;;;;;;;;;45.00;37.25;27.60;86.60;;;;;;5057544;28;9504;-70
2022/01/11 11:20:33;;;;;;;;;40.50;36.00;27.40;87.00;;;;;;5057319;28;8881;-69
2022/01/11 11:23:00;;;;;;;;;45.50;36.75;27.40;87.90;;;;;;5057719;28;8792;-70
2022/01/11 11:25:28;;;;;;;;;52.50;42.50;27.20;89.20;;;;;;5056357;28;8791;-70
2022/01/11 11:27:55;;;;;;;;;51.25;41.25;27.20;90.30;;;;;;5058359;28;8742;-70
2022/01/11 11:30:22;;;;;;;;;54.50;41.00;27.10;90.60;;;;;;5057435;28;8786;-69
2022/01/11 11:32:52;;;;;;;;;47.50;38.50;27.00;91.00;;;;;;5056337;28;8785;-70
2022/01/11 11:35:18;;;;;;;;;48.25;37.75;26.90;91.80;;;;;;5056068;28;8761;-67
2022/01/11 11:37:46;;;;;;;;;46.00;38.00;26.80;92.60;;;;;;5057520;28;8801;-70
2022/01/11 11:40:24;;;;;;;;;50.25;38.75;26.80;93.10;;;;;;5056646;28;8750;-70
2022/01/11 11:43:01;;;;;;;;;45.75;36.00;26.70;93.80;;;;;;5059107;28;8927;-70
2022/01/11 11:45:32;;;;;;;;;50.50;40.25;26.60;94.40;;;;;;5057288;28;9427;-70
2022/01/11 11:48:09;;;;;;;;;45.75;38.50;26.50;94.80;;;;;;5056625;28;8745;-71
2022/01/11 11:50:46;;;;;;;;;49.50;37.75;26.40;95.80;;;;;;5037377;28;8807;-70
2022/01/11 11:53:32;;;;;;;;;45.75;38.25;26.20;95.80;;;;;;5037686;28;8779;-70
2022/01/11 11:56:18;;;;;;;;;43.75;37.25;26.10;95.50;;;;;;5037630;28;8764;-70
2022/01/11 11:58:52;;;;;;;;;48.25;38.75;26.20;95.90;;;;;;5036289;28;8796;-71
2022/01/11 12:01:47;;;;;;;;;48.25;37.00;26.10;96.20;;;;;;5037192;28;8757;-69
2022/01/11 12:04:43;;;;;;;;;52.75;39.25;26.10;96.00;;;;;;5045880;28;8778;-70
2022/01/11 12:07:46;;;;;;;;;50.50;41.25;25.90;96.00;;;;;;5057326;28;9442;-70
2022/01/11 12:10:26;;;;;;;;;53.25;45.50;25.80;96.90;;;;;;5057125;28;8770;-71
2022/01/11 12:12:54;;;;;;;;;61.25;46.50;25.50;97.40;;;;;;5040786;28;8768;-70
2022/01/11 12:15:35;;;;;;;;;58.50;46.25;25.60;97.20;;;;;;5056680;28;8762;-70
2022/01/11 12:18:05;;;;;;;;;56.00;44.25;25.60;96.10;;;;;;5056849;28;8789;-71
2022/01/11 12:20:41;;;;;;;;;58.75;46.75;25.60;96.30;;;;;;5056052;28;9460;-70
2022/01/11 12:23:13;;;;;;;;;58.25;46.00;25.60;96.90;;;;;;5056763;28;8762;-70
2022/01/11 12:25:43;;;;;;;;;57.75;45.50;25.60;96.20;;;;;;5056789;28;8781;-70
2022/01/11 12:28:21;;;;;;;;;57.00;46.75;25.60;97.50;;;;;;5056080;28;8761;-71
2022/01/11 12:30:48;;;;;;;;;64.25;49.25;25.60;97.50;;;;;;5056934;28;8758;-70
2022/01/11 12:33:25;;;;;;;;;60.25;46.50;25.50;97.80;;;;;;5045005;28;8770;-71
2022/01/11 12:35:53;;;;;;;;;61.75;47.50;25.40;98.20;;;;;;5056706;28;8742;-70
2022/01/11 12:38:19;;;;;;;;;57.25;45.00;25.30;98.20;;;;;;5054839;28;8809;-70
2022/01/11 12:40:47;;;;;;;;;56.50;45.25;25.20;98.40;;;;;;5056966;28;9395;-70
2022/01/11 12:43:37;;;;;;;;;60.25;46.75;25.00;98.80;;;;;;5057589;28;8734;-70
2022/01/11 12:46:08;;;;;;;;;66.50;49.75;25.10;98.80;;;;;;5057386;28;8764;-70